Time;durP1;ratioP1;P1;durP2;ratioP2;P2;SDS_P1;SDS_P2;PMS_P1;PMS_P2;Temp;Humidity;BMP_temperature;BMP_pressure;BME280_temperature;BME280_humidity;BME280_pressure;Samples;Min_cycle;Max_cycle;Signal;HPM_P1;HPM_P2
2023/10/13 00:01:04;;;;;;;8.90;5.90;;;20.40;96.40;;;;;;5035281;28;20882;-67
2023/10/13 00:03:31;;;;;;;11.50;6.07;;;20.50;96.50;;;;;;5041049;28;20045;-66
2023/10/13 00:06:02;;;;;;;10.65;5.57;;;20.40;96.30;;;;;;5046025;28;20526;-66
2023/10/13 00:08:31;;;;;;;10.20;6.40;;;20.40;95.40;;;;;;5044371;28;20061;-66
2023/10/13 00:11:00;;;;;;;9.82;6.32;;;;;;;;;;5042408;28;20207;-68
2023/10/13 00:13:27;;;;;;;12.18;6.50;;;20.40;96.40;;;;;;5052725;28;20085;-67
2023/10/13 00:15:57;;;;;;;10.13;6.68;;;;;;;;;;5051672;28;20394;-67
2023/10/13 00:18:27;;;;;;;10.13;6.55;;;20.30;95.20;;;;;;5036291;28;20810;-67
2023/10/13 00:20:56;;;;;;;10.73;6.55;;;;;;;;;;5014975;28;20053;-67
2023/10/13 00:23:22;;;;;;;11.50;7.28;;;20.70;96.80;;;;;;5019791;28;20053;-67
2023/10/13 00:25:59;;;;;;;10.13;6.10;;;20.40;96.40;;;;;;5034471;28;20147;-67
2023/10/13 00:28:35;;;;;;;10.98;7.25;;;20.20;95.70;;;;;;5041371;28;20041;-67
2023/10/13 00:31:10;;;;;;;10.88;6.78;;;20.30;96.60;;;;;;5049795;28;20435;-66
2023/10/13 00:33:41;;;;;;;11.60;7.20;;;20.60;95.40;;;;;;5051673;28;20423;-65
2023/10/13 00:36:08;;;;;;;11.05;7.50;;;;;;;;;;5024719;28;20041;-67
2023/10/13 00:38:38;;;;;;;10.93;6.75;;;;;;;;;;5016028;28;20049;-66
2023/10/13 00:41:13;;;;;;;10.93;7.45;;;;;;;;;;5031631;28;20135;-66
2023/10/13 00:44:07;;;;;;;12.52;8.50;;;20.30;94.70;;;;;;5034908;28;20072;-67
2023/10/13 00:46:33;;;;;;;;;;;20.30;95.80;;;;;;5039182;28;20045;-67
2023/10/13 00:49:00;;;;;;;11.93;8.02;;;;;;;;;;5045433;28;19925;-68
2023/10/13 00:51:34;;;;;;;10.95;7.90;;;20.50;96.60;;;;;;5033004;28;20116;-67
2023/10/13 00:54:13;;;;;;;11.48;8.20;;;20.60;95.50;;;;;;5039511;28;20053;-66
2023/10/13 00:56:53;;;;;;;12.50;8.02;;;20.40;97.00;;;;;;5045392;28;20053;-67
2023/10/13 00:59:23;;;;;;;12.98;8.55;;;;;;;;;;5039862;28;20045;-67
2023/10/13 01:01:54;;;;;;;11.20;8.27;;;;;;;;;;5042364;28;20049;-67
2023/10/13 01:04:23;;;;;;;13.20;8.60;;;;;;;;;;5044303;28;20167;-67
2023/10/13 01:06:51;;;;;;;12.82;8.60;;;;;;;;;;5045926;28;20061;-67
2023/10/13 01:09:17;;;;;;;12.30;8.65;;;;;;;;;;5043965;28;20053;-67
2023/10/13 01:11:48;;;;;;;12.45;8.30;;;20.40;96.80;;;;;;5031939;28;20038;-66
2023/10/13 01:14:17;;;;;;;10.75;7.97;;;;;;;;;;5053124;28;20454;-67
2023/10/13 01:16:44;;;;;;;12.35;8.57;;;20.30;96.80;;;;;;5040492;28;20045;-67
2023/10/13 01:19:12;;;;;;;11.80;8.10;;;20.40;96.90;;;;;;5036310;28;20046;-68
2023/10/13 01:21:40;;;;;;;10.60;8.00;;;20.20;96.90;;;;;;5049137;28;20079;-68
2023/10/13 01:24:07;;;;;;;11.70;8.52;;;20.50;96.90;;;;;;5056061;28;20069;-68
2023/10/13 01:26:39;;;;;;;11.48;8.43;;;20.60;97.00;;;;;;5055911;28;20052;-69
2023/10/13 01:29:14;;;;;;;13.05;8.25;;;20.60;97.30;;;;;;5038355;28;20045;-69
2023/10/13 01:31:47;;;;;;;11.07;8.00;;;20.40;97.10;;;;;;5050129;28;20389;-69
2023/10/13 01:34:25;;;;;;;11.60;7.90;;;20.40;97.10;;;;;;5020209;28;20131;-68
2023/10/13 01:36:53;;;;;;;11.38;8.25;;;20.40;95.70;;;;;;5053572;28;20052;-67
2023/10/13 01:39:26;;;;;;;11.77;7.97;;;20.30;96.10;;;;;;5041462;28;20057;-67
2023/10/13 01:41:55;;;;;;;11.68;8.10;;;20.40;97.00;;;;;;5037262;28;20135;-66
2023/10/13 01:44:26;;;;;;;12.60;7.20;;;20.40;97.10;;;;;;5051718;28;20052;-67
2023/10/13 01:46:52;;;;;;;9.75;7.55;;;;;;;;;;5051996;28;20048;-67
2023/10/13 01:49:19;;;;;;;10.57;7.55;;;;;;;;;;5044806;28;20098;-67
2023/10/13 01:51:47;;;;;;;11.90;8.05;;;;;;;;;;5036572;28;20091;-68
2023/10/13 01:54:15;;;;;;;9.43;7.07;;;20.40;97.10;;;;;;5053509;28;20627;-67
2023/10/13 01:56:44;;;;;;;11.27;7.15;;;;;;;;;;5049366;28;20407;-67
2023/10/13 01:59:13;;;;;;;8.90;6.88;;;20.30;97.40;;;;;;5044419;28;20103;-68
2023/10/13 02:01:41;;;;;;;10.95;7.28;;;;;;;;;;5033242;28;20053;-67
2023/10/13 02:04:10;;;;;;;10.23;7.45;;;20.20;96.00;;;;;;5037433;28;22033;-69
2023/10/13 02:06:36;;;;;;;8.98;6.63;;;;;;;;;;5050197;28;20053;-68
2023/10/13 02:09:27;;;;;;;9.35;6.57;;;20.60;97.40;;;;;;5032742;28;20567;-68
2023/10/13 02:11:56;;;;;;;9.38;6.55;;;20.50;97.30;;;;;;5040226;28;20037;-67
2023/10/13 02:14:25;;;;;;;10.13;7.40;;;;;;;;;;5039194;28;20045;-68
2023/10/13 02:16:55;;;;;;;9.20;6.93;;;20.40;97.40;;;;;;5038558;28;20044;-67
2023/10/13 02:19:27;;;;;;;8.60;6.28;;;20.30;95.90;;;;;;5047960;28;20127;-67
2023/10/13 02:21:58;;;;;;;8.93;6.28;;;20.60;98.00;;;;;;5044783;28;20048;-68
2023/10/13 02:24:30;;;;;;;8.73;7.00;;;;;;;;;;5035450;28;20053;-66
2023/10/13 02:27:05;;;;;;;9.57;6.63;;;20.20;96.20;;;;;;5050163;28;20074;-67
2023/10/13 02:29:30;;;;;;;8.27;6.22;;;20.50;97.70;;;;;;5035584;28;20088;-68
2023/10/13 02:31:57;;;;;;;9.25;6.32;;;20.60;98.10;;;;;;5034179;28;20103;-67
2023/10/13 02:34:23;;;;;;;8.07;5.65;;;;;;;;;;5043412;28;20045;-68
2023/10/13 02:36:49;;;;;;;8.93;6.25;;;20.40;95.60;;;;;;5035619;28;20052;-67
2023/10/13 02:39:16;;;;;;;8.45;5.88;;;20.40;97.50;;;;;;5049078;28;20054;-67
2023/10/13 02:41:48;;;;;;;8.35;6.00;;;;;;;;;;5043265;28;20167;-67
2023/10/13 02:44:28;;;;;;;7.50;5.38;;;;;;;;;;5048624;28;20054;-66
2023/10/13 02:46:57;;;;;;;8.32;5.57;;;20.50;96.60;;;;;;5043899;28;20042;-67
2023/10/13 02:49:25;;;;;;;8.13;5.60;;;20.40;96.50;;;;;;5034023;28;20481;-67
2023/10/13 02:51:52;;;;;;;8.05;5.40;;;;;;;;;;5037168;28;20040;-67
2023/10/13 02:54:18;;;;;;;7.50;5.28;;;;;;;;;;5051114;28;20048;-67
2023/10/13 02:56:50;;;;;;;8.20;5.50;;;20.60;97.80;;;;;;5044960;28;20072;-67
2023/10/13 02:59:19;;;;;;;7.00;5.00;;;;;;;;;;5034473;28;20060;-67
2023/10/13 03:01:45;;;;;;;8.45;5.20;;;20.60;96.10;;;;;;5045406;28;20399;-67
2023/10/13 03:04:12;;;;;;;10.20;5.10;;;20.60;98.10;;;;;;5052203;28;20041;-67
2023/10/13 03:06:42;;;;;;;7.68;5.18;;;;;;;;;;5041602;28;20535;-67
2023/10/13 03:09:15;;;;;;;7.60;4.93;;;20.40;98.00;;;;;;5032560;28;20072;-67
2023/10/13 03:11:50;;;;;;;8.60;5.10;;;20.40;96.50;;;;;;5032469;28;20458;-67
2023/10/13 03:14:31;;;;;;;8.05;4.68;;;20.40;98.10;;;;;;5036145;28;20138;-67
2023/10/13 03:17:08;;;;;;;7.13;4.75;;;20.30;98.00;;;;;;5045908;28;20037;-67
2023/10/13 03:19:36;;;;;;;7.22;4.80;;;;;;;;;;5033549;28;20037;-68
2023/10/13 03:22:12;;;;;;;7.70;4.70;;;20.40;98.20;;;;;;5044174;28;20492;-66
2023/10/13 03:24:45;;;;;;;7.93;4.50;;;;;;;;;;5040702;28;20076;-66
2023/10/13 03:27:15;;;;;;;9.88;5.85;;;20.40;98.40;;;;;;5052100;28;20418;-68
2023/10/13 03:29:44;;;;;;;8.77;4.97;;;21.00;97.30;;;;;;5067527;28;20052;-67
2023/10/13 03:32:15;;;;;;;6.60;4.68;;;20.70;98.50;;;;;;5043953;28;20053;-67
2023/10/13 03:37:44;;;;;;;8.27;5.65;;;;;;;;;;5052399;28;20214;-69
2023/10/13 03:43:06;;;;;;;7.72;5.13;;;20.50;98.80;;;;;;5051949;28;20045;-67
2023/10/13 03:45:42;;;;;;;8.18;5.78;;;20.40;97.40;;;;;;5053436;28;20053;-66
2023/10/13 03:51:14;;;;;;;8.07;6.00;;;20.50;98.30;;;;;;5033568;28;20053;-66
2023/10/13 03:53:52;;;;;;;8.10;6.20;;;20.60;98.30;;;;;;5064149;28;20049;-68
2023/10/13 03:56:38;;;;;;;9.38;5.90;;;20.70;97.20;;;;;;5032406;28;20053;-66
2023/10/13 03:59:09;;;;;;;8.88;5.93;;;20.40;98.30;;;;;;5033023;28;20445;-68
2023/10/13 04:04:15;;;;;;;9.02;6.60;;;20.50;98.60;;;;;;5033883;28;20060;-67
2023/10/13 04:17:29;;;;;;;9.48;5.93;;;20.50;98.60;;;;;;5037035;28;20521;-68
2023/10/13 04:33:35;;;;;;;8.57;6.60;;;20.40;98.80;;;;;;5049366;28;20351;-66
2023/10/13 04:38:59;;;;;;;8.88;6.32;;;20.60;98.80;;;;;;5050627;28;20410;-66
2023/10/13 04:41:42;;;;;;;8.13;6.30;;;20.70;99.00;;;;;;5045576;28;20078;-66
2023/10/13 04:49:29;;;;;;;8.55;6.15;;;20.60;98.00;;;;;;5033637;28;20084;-68
2023/10/13 04:52:00;;;;;;;8.45;6.43;;;20.50;98.90;;;;;;5049535;28;20052;-67
2023/10/13 04:54:33;;;;;;;7.95;5.80;;;20.50;98.90;;;;;;5032680;28;20380;-67
2023/10/13 05:51:43;;;;;;;7.80;6.28;;;20.40;99.70;;;;;;5030194;28;20061;-68
2023/10/13 06:29:53;;;;;;;8.38;5.07;;;20.30;99.90;;;;;;5036855;28;20045;-68
2023/10/13 06:32:19;;;;;;;6.15;4.20;;;;;;;;;;5042323;28;20167;-67
2023/10/13 06:34:47;;;;;;;6.07;4.60;;;;;;;;;;5069615;28;20102;-67
2023/10/13 06:37:32;;;;;;;7.88;4.35;;;20.30;99.90;;;;;;5054607;28;20103;-66
2023/10/13 06:40:07;;;;;;;6.70;4.55;;;20.40;99.10;;;;;;5060246;28;20464;-67
2023/10/13 06:42:42;;;;;;;6.97;3.80;;;20.30;99.90;;;;;;5047691;28;20394;-67
2023/10/13 06:45:08;;;;;;;4.72;3.58;;;20.20;99.90;;;;;;5069419;28;20104;-66
2023/10/13 06:47:44;;;;;;;5.75;3.80;;;20.10;99.20;;;;;;5061044;28;20036;-66
2023/10/13 06:50:15;;;;;;;6.15;3.40;;;20.10;99.30;;;;;;5056190;28;20466;-66
2023/10/13 06:52:44;;;;;;;5.10;3.20;;;20.30;99.90;;;;;;5061359;28;20046;-67
2023/10/13 06:55:16;;;;;;;6.75;3.70;;;20.20;99.90;;;;;;5051363;28;20098;-66
2023/10/13 06:57:44;;;;;;;6.10;3.53;;;20.30;99.90;;;;;;5034728;28;20042;-67
2023/10/13 07:00:29;;;;;;;4.95;3.30;;;20.20;99.90;;;;;;5041656;28;20051;-67
2023/10/13 07:03:05;;;;;;;6.05;3.40;;;20.30;99.10;;;;;;5045956;28;20146;-68
2023/10/13 07:05:43;;;;;;;15.73;4.57;;;20.40;98.80;;;;;;5044859;28;20049;-69
2023/10/13 07:08:09;;;;;;;12.20;4.13;;;20.30;99.90;;;;;;5063592;28;20064;-67
2023/10/13 07:13:19;;;;;;;9.48;4.50;;;20.10;99.90;;;;;;5050522;28;20446;-69
2023/10/13 07:15:46;;;;;;;8.40;4.50;;;20.10;99.90;;;;;;5069699;28;20123;-69
2023/10/13 07:18:22;;;;;;;8.00;4.40;;;19.90;99.90;;;;;;5058200;28;20093;-67
2023/10/13 07:20:48;;;;;;;6.95;4.03;;;;;;;;;;5056957;28;20078;-68
2023/10/13 07:23:17;;;;;;;7.55;3.97;;;19.90;99.90;;;;;;5058525;28;20446;-67
2023/10/13 07:25:58;;;;;;;6.88;3.83;;;19.90;99.90;;;;;;5069683;28;20434;-68
2023/10/13 07:28:27;;;;;;;6.85;3.67;;;;;;;;;;5069928;28;20048;-68
2023/10/13 07:33:19;;;;;;;5.93;3.42;;;19.80;99.90;;;;;;5066145;28;20052;-68
2023/10/13 07:36:15;;;;;;;5.47;2.80;;;19.70;99.90;;;;;;5069854;28;20040;-68
2023/10/13 07:38:42;;;;;;;6.20;3.10;;;19.50;99.90;;;;;;5067549;28;20184;-69
2023/10/13 07:41:09;;;;;;;4.50;2.70;;;;;;;;;;5039071;28;20087;-68
2023/10/13 07:43:37;;;;;;;7.13;3.00;;;19.90;99.90;;;;;;5048447;28;20139;-68
2023/10/13 07:46:09;;;;;;;6.93;3.10;;;;;;;;;;5050804;28;20089;-67
2023/10/13 07:48:37;;;;;;;7.40;3.00;;;19.90;99.90;;;;;;5046773;28;20048;-69
2023/10/13 07:51:22;;;;;;;6.47;3.17;;;20.00;99.90;;;;;;5056444;28;20153;-67
2023/10/13 07:53:52;;;;;;;7.07;3.00;;;20.10;99.90;;;;;;5060051;28;20060;-66
2023/10/13 07:56:20;;;;;;;6.82;3.72;;;;;;;;;;5054270;28;20135;-67
2023/10/13 07:58:52;;;;;;;9.52;4.00;;;20.20;99.90;;;;;;5060601;28;20102;-70
2023/10/13 08:01:21;;;;;;;7.13;3.20;;;20.10;99.90;;;;;;5041242;28;20049;-68
2023/10/13 08:04:04;;;;;;;8.23;3.70;;;;;;;;;;5024732;28;20130;-67
2023/10/13 08:06:30;;;;;;;8.60;3.70;;;20.30;99.90;;;;;;5031615;28;20128;-70
2023/10/13 08:09:40;;;;;;;6.63;3.60;;;;;;;;;;5048689;28;20074;-67
2023/10/13 08:11:46;;;;;;;9.40;4.13;;;20.40;99.90;;;;;;5064746;28;20105;-69
2023/10/13 08:14:17;;;;;;;7.43;4.20;;;20.50;99.90;;;;;;5063463;28;20098;-68
2023/10/13 08:19:44;;;;;;;9.25;4.03;;;;;;;;;;5035599;28;20037;-70
2023/10/13 08:37:32;;;;;;;9.50;4.05;;;20.40;99.90;;;;;;5033604;28;20407;-66
2023/10/13 08:48:07;;;;;;;9.50;4.05;;;20.60;99.90;;;;;;5045959;28;20049;-67
2023/10/13 08:53:33;;;;;;;9.18;4.13;;;20.60;99.90;;;;;;5018004;28;20128;-67
2023/10/13 08:56:14;;;;;;;7.93;4.38;;;20.80;99.90;;;;;;5028849;28;20072;-67
2023/10/13 09:12:17;;;;;;;9.20;4.85;;;20.50;99.90;;;;;;5041352;28;20057;-67
2023/10/13 09:14:44;;;;;;;9.05;4.55;;;20.50;99.90;;;;;;5039587;28;20057;-67
2023/10/13 09:19:55;;;;;;;9.05;4.47;;;20.60;99.90;;;;;;5034633;28;20080;-67
2023/10/13 09:22:27;;;;;;;13.90;5.35;;;20.60;99.90;;;;;;5029890;28;20498;-69
2023/10/13 09:24:59;;;;;;;11.57;4.82;;;20.60;99.90;;;;;;5033594;28;20048;-68
2023/10/13 09:27:29;;;;;;;14.75;5.18;;;20.70;99.90;;;;;;5030062;28;20056;-70
2023/10/13 09:30:20;;;;;;;12.20;5.43;;;20.60;99.90;;;;;;5029748;28;20051;-67
2023/10/13 09:33:01;;;;;;;48.67;15.40;;;20.60;99.90;;;;;;5031071;28;20403;-68
2023/10/13 09:35:28;;;;;;;36.55;13.07;;;20.60;99.90;;;;;;5041114;28;20102;-66
2023/10/13 09:37:57;;;;;;;30.35;11.13;;;;;;;;;;5047466;28;20077;-73
2023/10/13 09:42:59;;;;;;;29.67;9.48;;;20.70;99.90;;;;;;5038060;28;20052;-71
2023/10/13 09:45:43;;;;;;;20.33;8.30;;;20.70;99.90;;;;;;5047481;28;20052;-66
2023/10/13 09:48:21;;;;;;;15.02;7.25;;;20.50;99.90;;;;;;5035662;28;20071;-66
2023/10/13 09:50:48;;;;;;;20.70;7.10;;;20.80;99.90;;;;;;5038074;28;20080;-69
2023/10/13 09:53:18;;;;;;;15.23;6.70;;;20.90;99.90;;;;;;5046229;28;20348;-69
2023/10/13 09:56:19;;;;;;;20.45;7.15;;;20.90;99.90;;;;;;5021516;28;20051;-69
2023/10/13 09:59:00;;;;;;;14.20;6.35;;;20.80;99.90;;;;;;5017444;28;20507;-68
2023/10/13 10:01:32;;;;;;;16.13;6.07;;;21.10;99.90;;;;;;5020936;28;20060;-67
2023/10/13 10:04:08;;;;;;;20.20;5.90;;;20.70;99.90;;;;;;5052291;28;20084;-69
2023/10/13 10:06:44;;;;;;;17.98;6.30;;;20.80;99.90;;;;;;5051149;28;20517;-69
2023/10/13 10:09:11;;;;;;;17.52;6.68;;;21.10;99.90;;;;;;5029477;28;20058;-69
2023/10/13 10:11:55;;;;;;;14.60;6.05;;;20.80;99.90;;;;;;5014942;28;20450;-68
2023/10/13 10:14:32;;;;;;;15.93;5.32;;;20.90;99.90;;;;;;5014398;28;20084;-69
2023/10/13 10:17:07;;;;;;;27.23;6.55;;;20.90;99.90;;;;;;5032143;28;20132;-65
2023/10/13 10:19:40;;;;;;;19.40;6.22;;;;;;;;;;4998432;28;20567;-70
2023/10/13 10:22:20;;;;;;;17.48;5.50;;;;;;;;;;5015077;28;20491;-71
2023/10/13 10:24:59;;;;;;;14.35;5.60;;;21.00;99.90;;;;;;5013593;28;20049;-70
2023/10/13 10:27:31;;;;;;;25.65;6.40;;;20.90;99.90;;;;;;5044945;28;20129;-71
2023/10/13 10:29:57;;;;;;;19.77;6.57;;;21.60;99.90;;;;;;5032894;28;20047;-69
2023/10/13 10:32:48;;;;;;;21.38;6.55;;;21.10;99.90;;;;;;5005570;28;20089;-71
2023/10/13 10:35:15;;;;;;;25.85;6.60;;;21.20;99.90;;;;;;5030050;28;20054;-69
2023/10/13 10:37:46;;;;;;;31.58;6.75;;;21.00;99.90;;;;;;5026025;28;20430;-69
2023/10/13 10:40:46;;;;;;;19.55;5.95;;;21.10;99.90;;;;;;5022023;28;20052;-71
2023/10/13 10:43:08;;;;;;;20.50;5.90;;;21.20;99.90;;;;;;5011546;28;20136;-72
2023/10/13 10:45:37;;;;;;;17.02;6.15;;;21.20;99.90;;;;;;5022298;28;20057;-73
2023/10/13 10:48:17;;;;;;;17.13;6.05;;;21.00;99.90;;;;;;5033989;28;20125;-69
2023/10/13 10:50:44;;;;;;;13.27;4.97;;;;;;;;;;5030087;28;20970;-72
2023/10/13 10:53:09;;;;;;;11.48;5.55;;;21.10;99.90;;;;;;5030665;28;20067;-70
2023/10/13 10:55:38;;;;;;;11.80;5.65;;;21.00;99.90;;;;;;5029483;28;20041;-68
2023/10/13 10:58:06;;;;;;;16.20;5.80;;;21.10;99.90;;;;;;5043197;28;20046;-71
2023/10/13 11:00:46;;;;;;;10.23;5.15;;;21.70;99.90;;;;;;5014311;28;20484;-72
2023/10/13 11:03:12;;;;;;;15.65;5.43;;;21.20;99.90;;;;;;5021179;28;20571;-68
2023/10/13 11:05:45;;;;;;;15.68;5.88;;;21.20;99.90;;;;;;5034214;28;20445;-72
2023/10/13 11:08:37;;;;;;;9.43;4.78;;;21.10;99.90;;;;;;5042919;28;20092;-68
2023/10/13 11:11:05;;;;;;;14.45;5.30;;;;;;;;;;5044697;28;20513;-71
2023/10/13 11:13:54;;;;;;;11.82;5.75;;;21.20;99.90;;;;;;5034203;28;20076;-70
2023/10/13 11:16:34;;;;;;;14.55;5.55;;;21.20;99.90;;;;;;5032498;28;20136;-68
2023/10/13 11:19:05;;;;;;;15.00;5.30;;;21.10;99.90;;;;;;5034017;28;20053;-71
2023/10/13 11:21:32;;;;;;;12.00;5.63;;;;;;;;;;5032640;28;20046;-72
2023/10/13 11:24:03;;;;;;;10.25;5.63;;;21.10;99.90;;;;;;5032280;28;20053;-72
2023/10/13 11:26:47;;;;;;;13.75;5.47;;;21.30;99.90;;;;;;5035830;28;20042;-68
2023/10/13 11:29:14;;;;;;;10.88;5.10;;;;;;;;;;5052202;28;20068;-74
2023/10/13 11:31:41;;;;;;;15.25;6.15;;;;;;;;;;5047491;28;20048;-71
2023/10/13 11:34:11;;;;;;;14.00;5.50;;;21.30;99.90;;;;;;5031175;28;20419;-70
2023/10/13 11:36:38;;;;;;;14.80;5.55;;;;;;;;;;5015931;28;20049;-72
2023/10/13 11:39:07;;;;;;;18.05;6.22;;;;;;;;;;5024391;28;20510;-71
2023/10/13 11:41:45;;;;;;;12.30;5.50;;;21.50;99.90;;;;;;5052250;28;20053;-69
2023/10/13 11:49:33;;;;;;;11.68;5.70;;;21.40;99.90;;;;;;5055311;28;20398;-76
2023/10/13 11:52:11;;;;;;;11.70;5.28;;;;;;;;;;5037909;28;20045;-71
2023/10/13 11:54:41;;;;;;;11.02;5.38;;;21.40;99.90;;;;;;5042469;28;20049;-71
2023/10/13 11:57:08;;;;;;;17.95;5.78;;;;;;;;;;5051322;28;20729;-71
2023/10/13 11:59:40;;;;;;;11.77;5.80;;;;;;;;;;5027637;28;20056;-67
2023/10/13 12:07:20;;;;;;;15.20;5.72;;;;;;;;;;5032830;28;20058;-70
2023/10/13 12:12:23;;;;;;;14.05;6.00;;;;;;;;;;5031269;28;20191;-72
2023/10/13 12:15:08;;;;;;;13.77;5.65;;;21.60;99.90;;;;;;5049139;28;20551;-71
2023/10/13 12:17:35;;;;;;;15.65;6.07;;;;;;;;;;5019772;28;20399;-74
2023/10/13 12:20:04;;;;;;;26.35;7.30;;;;;;;;;;5031099;28;20048;-69
2023/10/13 12:22:39;;;;;;;33.63;11.70;;;21.40;99.90;;;;;;5031520;28;20522;-70
2023/10/13 12:25:24;;;;;;;37.42;13.65;;;21.40;99.90;;;;;;5031389;28;20049;-70
2023/10/13 12:27:56;;;;;;;43.38;13.20;;;21.50;99.90;;;;;;5044113;28;20364;-71
2023/10/13 12:30:35;;;;;;;40.13;11.45;;;21.50;99.90;;;;;;5047171;28;20415;-69
2023/10/13 12:33:08;;;;;;;36.38;11.65;;;20.50;99.90;;;;;;5032779;28;20037;-70
2023/10/13 12:35:44;;;;;;;42.85;12.38;;;21.60;99.90;;;;;;5046066;28;20062;-68
2023/10/13 12:49:58;;;;;;;58.90;12.27;;;;;;;;;;5032662;28;20053;-71
2023/10/13 12:52:05;;;;;;;41.67;11.20;;;;;;;;;;5034916;28;20049;-71
2023/10/13 12:54:39;;;;;;;52.25;11.70;;;;;;;;;;5030999;28;20057;-70
2023/10/13 12:57:09;;;;;;;42.20;11.40;;;21.40;99.90;;;;;;5030922;28;20073;-74
2023/10/13 12:59:35;;;;;;;39.97;10.32;;;21.50;99.90;;;;;;5032226;28;20073;-73
2023/10/13 13:02:07;;;;;;;28.15;10.13;;;21.30;99.90;;;;;;5030114;28;20045;-69
2023/10/13 13:04:36;;;;;;;41.28;10.98;;;;;;;;;;5041855;28;20114;-70
2023/10/13 13:07:04;;;;;;;56.10;10.73;;;;;;;;;;5049599;28;20402;-69
2023/10/13 13:09:30;;;;;;;33.55;9.13;;;;;;;;;;5044973;28;20124;-69
2023/10/13 13:11:57;;;;;;;34.33;8.57;;;21.40;99.90;;;;;;5047858;28;20064;-69
2023/10/13 13:14:29;;;;;;;36.45;9.38;;;21.40;99.90;;;;;;5029320;28;20120;-69
2023/10/13 13:17:04;;;;;;;37.78;9.65;;;21.50;99.90;;;;;;5048475;28;20041;-67
2023/10/13 13:19:36;;;;;;;39.25;8.82;;;21.50;99.90;;;;;;5038911;28;20053;-68
2023/10/13 13:22:03;;;;;;;31.98;8.48;;;21.30;99.90;;;;;;5047610;28;20059;-68
2023/10/13 13:24:30;;;;;;;39.90;8.70;;;;;;;;;;5024996;28;20053;-68
2023/10/13 13:27:05;;;;;;;40.72;8.27;;;21.30;99.90;;;;;;5038824;28;20053;-69
2023/10/13 13:29:31;;;;;;;26.63;8.80;;;;;;;;;;5020900;28;20521;-69
2023/10/13 13:31:57;;;;;;;30.00;8.23;;;;;;;;;;5016769;28;20049;-68
2023/10/13 13:34:23;;;;;;;27.58;7.60;;;21.30;99.90;;;;;;5046739;28;20084;-68
2023/10/13 13:36:52;;;;;;;28.40;7.65;;;21.70;99.90;;;;;;5024118;28;20088;-68
2023/10/13 13:39:30;;;;;;;28.10;8.30;;;21.50;99.90;;;;;;5036100;28;20053;-68
2023/10/13 13:41:59;;;;;;;21.70;7.70;;;21.50;99.90;;;;;;5040205;28;20056;-69
2023/10/13 13:44:35;;;;;;;19.20;7.50;;;;;;;;;;5024392;28;20375;-68
2023/10/13 13:47:11;;;;;;;22.48;7.85;;;21.40;99.90;;;;;;5041949;28;20049;-69
2023/10/13 13:49:46;;;;;;;16.10;6.88;;;21.20;99.90;;;;;;5020405;28;20548;-69
2023/10/13 13:52:23;;;;;;;20.35;7.63;;;;;;;;;;5065622;28;20049;-68
2023/10/13 13:54:49;;;;;;;15.50;7.03;;;21.10;99.70;;;;;;5037205;28;20081;-68
2023/10/13 13:57:14;;;;;;;20.15;7.35;;;21.30;99.90;;;;;;5056447;28;20081;-68
2023/10/13 13:59:44;;;;;;;16.60;7.40;;;21.30;99.90;;;;;;5056059;28;20041;-69
2023/10/13 14:02:19;;;;;;;16.83;6.65;;;21.20;99.90;;;;;;5036244;28;20075;-68
2023/10/13 14:04:50;;;;;;;16.60;7.68;;;21.40;99.90;;;;;;5024427;28;20144;-68
2023/10/13 14:07:19;;;;;;;15.85;7.55;;;21.40;99.90;;;;;;5037660;28;20049;-68
2023/10/13 14:09:51;;;;;;;17.77;7.70;;;21.20;99.90;;;;;;5021965;28;20056;-68
2023/10/13 14:12:29;;;;;;;17.70;7.45;;;21.30;99.90;;;;;;5049627;28;20057;-67
2023/10/13 14:14:56;;;;;;;16.77;7.45;;;21.20;99.90;;;;;;5027250;28;20409;-67
2023/10/13 14:17:29;;;;;;;52.17;10.35;;;21.60;99.90;;;;;;5038713;28;20049;-67
2023/10/13 14:19:58;;;;;;;;;;;21.10;99.90;;;;;;5036012;28;20050;-67
2023/10/13 14:22:24;;;;;;;32.78;8.55;;;21.30;99.90;;;;;;5042108;28;19931;-68
2023/10/13 14:24:58;;;;;;;23.25;7.60;;;21.30;99.90;;;;;;5013441;28;20037;-67
2023/10/13 14:27:25;;;;;;;21.75;7.75;;;21.30;99.90;;;;;;5034624;28;20123;-67
2023/10/13 14:29:56;;;;;;;24.73;8.45;;;21.30;99.90;;;;;;5057957;28;20041;-68
2023/10/13 14:32:25;;;;;;;27.73;8.75;;;21.00;99.90;;;;;;5038229;28;20052;-68
2023/10/13 14:34:57;;;;;;;23.75;9.05;;;21.30;99.90;;;;;;5029692;28;20053;-67
2023/10/13 14:37:32;;;;;;;28.17;8.82;;;21.10;99.90;;;;;;5042606;28;20042;-69
2023/10/13 14:39:58;;;;;;;43.15;11.00;;;21.30;99.90;;;;;;5033548;28;20411;-67
2023/10/13 14:42:25;;;;;;;29.38;8.88;;;21.30;99.90;;;;;;5032063;28;20506;-68
2023/10/13 14:44:55;;;;;;;24.73;9.02;;;21.10;99.90;;;;;;5033459;28;20051;-68
2023/10/13 14:47:27;;;;;;;24.02;8.75;;;21.10;99.90;;;;;;5022276;28;20049;-70
2023/10/13 14:49:59;;;;;;;35.42;9.57;;;21.00;99.90;;;;;;5013599;28;20064;-67
2023/10/13 14:52:26;;;;;;;29.08;8.88;;;;;;;;;;5033764;28;20057;-68
2023/10/13 14:54:55;;;;;;;26.95;9.23;;;;;;;;;;5033168;28;20107;-68
2023/10/13 14:57:24;;;;;;;23.52;8.93;;;21.10;99.90;;;;;;5035125;28;20080;-68
2023/10/13 14:59:53;;;;;;;20.52;7.93;;;21.00;99.90;;;;;;5032170;28;20410;-68
2023/10/13 15:02:20;;;;;;;21.95;9.13;;;;;;;;;;5021902;28;20049;-68
2023/10/13 15:04:48;;;;;;;18.90;7.93;;;21.10;99.90;;;;;;5026320;28;20049;-71
2023/10/13 15:07:19;;;;;;;19.88;8.43;;;;;;;;;;5036548;28;20119;-69
2023/10/13 15:09:45;;;;;;;20.75;9.60;;;21.20;99.90;;;;;;5040356;28;20125;-69
2023/10/13 15:12:11;;;;;;;23.77;8.93;;;;;;;;;;5047613;28;20124;-70
2023/10/13 15:14:43;;;;;;;22.45;8.43;;;21.30;99.90;;;;;;5032752;28;20049;-68
2023/10/13 15:17:10;;;;;;;25.80;8.53;;;21.20;99.90;;;;;;5048616;28;20077;-68
2023/10/13 15:19:39;;;;;;;23.02;8.45;;;21.20;99.90;;;;;;4999957;28;20383;-68
2023/10/13 15:22:27;;;;;;;26.52;8.93;;;21.40;99.90;;;;;;5017802;28;20434;-68
2023/10/13 15:25:09;;;;;;;20.70;8.70;;;;;;;;;;5035413;28;20139;-69
2023/10/13 15:27:41;;;;;;;29.48;9.30;;;;;;;;;;5039944;28;20060;-69
2023/10/13 15:30:20;;;;;;;16.50;8.35;;;21.10;99.90;;;;;;5033805;28;20051;-69
2023/10/13 15:32:48;;;;;;;15.27;7.50;;;21.20;99.90;;;;;;5031678;28;20064;-70
2023/10/13 15:35:15;;;;;;;33.88;9.25;;;21.10;99.90;;;;;;5045595;28;20046;-69
2023/10/13 15:37:47;;;;;;;20.35;8.50;;;21.30;99.90;;;;;;5033561;28;20048;-68
2023/10/13 15:40:15;;;;;;;37.78;9.32;;;21.20;99.90;;;;;;5031708;28;20054;-68
2023/10/13 15:42:44;;;;;;;25.08;8.70;;;21.20;99.90;;;;;;5035304;28;20068;-68
2023/10/13 15:45:17;;;;;;;31.25;8.77;;;21.20;99.90;;;;;;5034879;28;20102;-69
2023/10/13 15:47:47;;;;;;;26.25;9.13;;;21.30;99.90;;;;;;5051715;28;20124;-70
2023/10/13 15:50:20;;;;;;;23.27;9.02;;;20.90;99.90;;;;;;5049807;28;20052;-67
2023/10/13 15:52:46;;;;;;;;;;;21.10;99.90;;;;;;5046195;28;20395;-65
2023/10/13 15:55:17;;;;;;;21.17;8.73;;;21.00;99.90;;;;;;5052086;28;19924;-65
2023/10/13 15:57:43;;;;;;;24.45;9.15;;;21.20;99.90;;;;;;5053220;28;20080;-66
2023/10/13 16:00:25;;;;;;;23.50;8.85;;;21.00;99.90;;;;;;5035409;28;20049;-66
2023/10/13 16:02:54;;;;;;;22.77;7.97;;;21.10;99.90;;;;;;5044204;28;20399;-66
2023/10/13 16:05:23;;;;;;;19.17;8.43;;;21.00;99.90;;;;;;5050655;28;20055;-65
2023/10/13 16:07:52;;;;;;;19.17;8.20;;;20.80;99.90;;;;;;5051746;28;20084;-65
2023/10/13 16:10:22;;;;;;;19.60;9.20;;;20.90;99.90;;;;;;5036274;28;20053;-65
2023/10/13 16:12:48;;;;;;;19.13;8.23;;;;;;;;;;5014852;28;20060;-66
2023/10/13 16:15:14;;;;;;;16.33;7.65;;;21.00;99.90;;;;;;5044752;28;20131;-66
2023/10/13 16:17:43;;;;;;;16.17;8.07;;;20.90;99.90;;;;;;5036892;28;20128;-65
2023/10/13 16:20:18;;;;;;;19.83;7.70;;;20.80;99.90;;;;;;5045106;28;20057;-66
2023/10/13 16:22:45;;;;;;;17.58;7.75;;;20.70;99.90;;;;;;5036139;28;20107;-65
2023/10/13 16:25:12;;;;;;;15.88;7.78;;;21.00;99.90;;;;;;5049069;28;20049;-66
2023/10/13 16:27:40;;;;;;;13.23;8.18;;;20.80;99.90;;;;;;5049100;28;20045;-65
2023/10/13 16:30:14;;;;;;;13.98;7.28;;;20.70;99.90;;;;;;5023719;28;20077;-65
2023/10/13 16:32:47;;;;;;;16.23;7.70;;;21.00;99.90;;;;;;5031218;28;20562;-66
2023/10/13 16:35:19;;;;;;;14.63;7.78;;;20.90;99.90;;;;;;5033591;28;20049;-65
2023/10/13 16:37:45;;;;;;;11.48;7.28;;;20.70;99.90;;;;;;5051342;28;20060;-65
2023/10/13 16:40:15;;;;;;;12.50;7.55;;;20.80;99.90;;;;;;5051137;28;20052;-65
2023/10/13 16:42:41;;;;;;;14.27;7.15;;;20.90;99.90;;;;;;5049151;28;20414;-66
2023/10/13 16:45:23;;;;;;;18.10;11.88;;;20.70;99.90;;;;;;5050224;28;20040;-66
2023/10/13 16:47:49;;;;;;;28.33;18.23;;;20.70;99.90;;;;;;5038183;28;20041;-66
2023/10/13 16:50:18;;;;;;;33.95;25.52;;;20.80;99.90;;;;;;5053938;28;20049;-66
2023/10/13 16:52:47;;;;;;;30.88;21.08;;;20.80;99.90;;;;;;5029903;28;20045;-65
2023/10/13 16:55:17;;;;;;;29.75;19.08;;;20.80;99.90;;;;;;5042856;28;20045;-65
2023/10/13 16:57:50;;;;;;;24.70;16.17;;;20.80;99.90;;;;;;5042602;28;20067;-65
2023/10/13 17:00:16;;;;;;;;;;;20.90;99.90;;;;;;5033392;28;20044;-65